Ahmadi, Kuwait

4:26 PM AST on July 01, 2015 (GMT +0300)
Kuwait International | | Change Station
CLOSE
Current Station
Airport
Location: Kuwait,
Elevation: 180 ft
Nearby Weather Stations

Elev 180 ft 29.22 °N, 47.98 °E | Updated 27 minutes ago

Partly Cloudy
Partly Cloudy
111 °F
Feels Like 111 °F
N
26
Wind Variable Wind from NNW
Gusts 28 mph

Today
High -- | Low -- °F
--% Chance of Precip.
Yesterday
High -- | Low -- °F
Precip. -- in
4:51 AM 6:50 PM
Full, 100% visible
Pressure 29.56 in
Visibility 1.9 miles
Clouds Clear
Dew Point 36 °F
Humidity 8%
Rainfall 0.00 in
Snow Depth Not available.
UV 4 out of 12
Pollen Not available.
Air Quality Not available.
Flu Activity Not available.
METAR OKBK 011259Z 34023KT 3000 BLDU SKC 44/02 Q1001 NOSIG

More Conditions Fewer Conditions

Pressure 29.56 in
Visibility 1.9 miles
Clouds Clear
Dew Point 36 °F
Humidity 8%
Rainfall 0.00 in
Snow Depth Not available.
UV 4 out of 12
Pollen Not available.
Air Quality Not available.
Flu Activity Not available.
METAR OKBK 011259Z 34023KT 3000 BLDU SKC 44/02 Q1001 NOSIG

More Conditions Fewer Conditions

10-Day Weather Forecast

×

Almanac

Astronomy

Jul. 01, 2015 Rise Set
Actual Time
Civil Twilight
Nautical Twilight
Astronomical Twilight
Moon
Length of Visible Light
Length of Day
Tomorrow will be .
, % of the Moon is Illuminated

Today's Extremes

Country Highs Country Lows

Community

WunderPhotos

Upload Photos

1,834,195 photos uploaded!

WunderBlogs® & News

Nearby

Air Quality

  Air Quality AQ Index Pollutant
Not available.

Snow Depth

Station Depth Elevation

Earthquake Activity

City Distance Mag. Time & Date
Minimum magnitude displayed is 2.5.

Coastal Water Temperatures

Place Temperature

Stations

Nearby Weather Stations

Station Location Temp. Windchill Dew Point Humidity Wind Precip. Elev Updated Type